Time;durP1;ratioP1;P1;durP2;ratioP2;P2;SDS_P1;SDS_P2;PMS_P1;PMS_P2;Temp;Humidity;BMP_temperature;BMP_pressure;BME280_temperature;BME280_humidity;BME280_pressure;Samples;Min_cycle;Max_cycle;Signal;HPM_P1;HPM_P2
2023/09/11 00:01:21;;;;;;;14.93;10.03;;;20.60;99.90;;;;;;5014143;28;20207;-82
2023/09/11 00:03:48;;;;;;;16.93;10.30;;;20.50;99.90;;;;;;5014250;28;20207;-82
2023/09/11 00:06:14;;;;;;;16.87;10.27;;;20.50;99.90;;;;;;5030027;28;20217;-83
2023/09/11 00:08:40;;;;;;;14.93;9.70;;;20.50;99.90;;;;;;5030917;28;20195;-82
2023/09/11 00:11:06;;;;;;;14.60;10.07;;;20.50;99.90;;;;;;4998563;28;20277;-82
2023/09/11 00:13:32;;;;;;;14.20;10.10;;;20.40;99.90;;;;;;5014263;28;20238;-82
2023/09/11 00:15:58;;;;;;;14.37;9.63;;;20.50;99.90;;;;;;5013885;28;20207;-83
2023/09/11 00:18:24;;;;;;;17.63;10.03;;;20.50;99.90;;;;;;5029935;28;20259;-82
2023/09/11 00:20:50;;;;;;;15.63;10.93;;;20.50;99.90;;;;;;5014923;28;20190;-82
2023/09/11 00:23:16;;;;;;;11.47;10.23;;;20.50;99.90;;;;;;5014967;28;20217;-82
2023/09/11 00:25:42;;;;;;;18.80;10.57;;;20.50;99.90;;;;;;5030229;28;20260;-83
2023/09/11 00:28:08;;;;;;;18.23;9.77;;;20.60;99.90;;;;;;5013747;28;20218;-82
2023/09/11 00:30:37;;;;;;;16.77;10.13;;;20.70;99.90;;;;;;5013439;28;20214;-82
2023/09/11 00:33:03;;;;;;;18.33;9.70;;;20.60;99.90;;;;;;5029809;28;20226;-83
2023/09/11 00:35:29;;;;;;;15.10;10.13;;;20.70;99.90;;;;;;5013706;28;20241;-82
2023/09/11 00:37:54;;;;;;;17.50;9.87;;;20.70;99.90;;;;;;5030188;28;20210;-82
2023/09/11 00:40:20;;;;;;;19.07;10.60;;;20.70;99.90;;;;;;5013350;28;20276;-83
2023/09/11 00:42:46;;;;;;;12.30;9.97;;;20.70;99.90;;;;;;5012742;28;20211;-82
2023/09/11 00:45:12;;;;;;;13.13;10.70;;;20.60;99.90;;;;;;4996849;28;20210;-82
2023/09/11 00:47:40;;;;;;;17.57;9.50;;;20.70;99.90;;;;;;5013582;28;20198;-82
2023/09/11 00:50:09;;;;;;;16.60;11.13;;;20.60;99.90;;;;;;5044003;28;20203;-83
2023/09/11 00:52:35;;;;;;;15.50;10.20;;;20.60;99.90;;;;;;5026042;28;20207;-83
2023/09/11 00:55:01;;;;;;;11.70;9.53;;;20.50;99.90;;;;;;5010410;28;20272;-83
2023/09/11 00:57:27;;;;;;;16.20;11.30;;;20.50;99.90;;;;;;5025972;28;20265;-82
2023/09/11 00:59:53;;;;;;;18.00;11.10;;;20.50;99.90;;;;;;5009157;28;20214;-83
2023/09/11 01:02:20;;;;;;;18.97;11.80;;;20.50;99.90;;;;;;5011975;28;20265;-82
2023/09/11 01:04:46;;;;;;;14.43;10.43;;;20.50;99.90;;;;;;5029540;28;20218;-83
2023/09/11 01:07:12;;;;;;;19.43;10.53;;;20.50;99.90;;;;;;5029782;28;20341;-83
2023/09/11 01:09:39;;;;;;;13.90;10.83;;;20.50;99.90;;;;;;5029341;28;20215;-83
2023/09/11 01:12:05;;;;;;;15.30;10.70;;;20.50;99.90;;;;;;5011950;28;20218;-83
2023/09/11 01:14:33;;;;;;;13.60;10.77;;;20.50;99.90;;;;;;5012287;28;20252;-83
2023/09/11 01:17:01;;;;;;;18.70;12.37;;;20.50;99.90;;;;;;5026480;28;20183;-83
2023/09/11 01:19:44;;;;;;;18.80;11.23;;;20.50;99.90;;;;;;5025040;28;20726;-82
2023/09/11 01:22:26;;;;;;;16.83;11.00;;;20.50;99.90;;;;;;5022149;28;20503;-83
2023/09/11 01:24:54;;;;;;;14.77;10.17;;;20.40;99.90;;;;;;5009687;28;20223;-82
2023/09/11 01:27:45;;;;;;;16.53;9.37;;;20.40;99.90;;;;;;5023865;28;20223;-82
2023/09/11 01:30:12;;;;;;;17.37;10.73;;;20.40;99.90;;;;;;5025211;28;20566;-82
2023/09/11 01:32:38;;;;;;;21.83;11.10;;;20.40;99.90;;;;;;4992843;28;20191;-82
2023/09/11 01:35:04;;;;;;;15.57;10.83;;;20.40;99.90;;;;;;4993843;28;20665;-82
2023/09/11 01:37:31;;;;;;;15.07;11.47;;;20.40;99.90;;;;;;4990840;28;20575;-82
2023/09/11 01:39:57;;;;;;;14.23;10.53;;;20.40;99.90;;;;;;4998026;28;20215;-82
2023/09/11 01:42:30;;;;;;;14.03;10.33;;;20.40;99.90;;;;;;5011402;28;20214;-82
2023/09/11 01:44:58;;;;;;;15.50;11.73;;;20.40;99.90;;;;;;5025716;28;20219;-82
2023/09/11 01:47:25;;;;;;;15.73;9.87;;;20.40;99.90;;;;;;5009412;28;20190;-82
2023/09/11 01:49:54;;;;;;;23.10;10.83;;;20.40;99.90;;;;;;5001772;28;20589;-82
2023/09/11 01:52:20;;;;;;;17.63;10.70;;;20.40;99.90;;;;;;5007310;28;20266;-82
2023/09/11 01:54:47;;;;;;;21.53;11.10;;;20.30;99.90;;;;;;5005434;28;20215;-82
2023/09/11 01:57:13;;;;;;;16.10;10.70;;;20.40;99.90;;;;;;5019785;28;20702;-83
2023/09/11 01:59:39;;;;;;;19.23;11.00;;;20.40;99.90;;;;;;5028075;28;20190;-82
2023/09/11 02:02:06;;;;;;;18.20;11.40;;;20.40;99.90;;;;;;5012702;28;20182;-82
2023/09/11 02:04:31;;;;;;;17.80;10.20;;;20.30;99.90;;;;;;5028674;28;20226;-82
2023/09/11 02:06:57;;;;;;;17.53;11.43;;;20.30;99.90;;;;;;5029006;28;20210;-82
2023/09/11 02:09:23;;;;;;;19.77;11.87;;;20.30;99.90;;;;;;5011854;28;20229;-82
2023/09/11 02:11:49;;;;;;;14.67;9.63;;;20.30;99.90;;;;;;5012642;28;20190;-82
2023/09/11 02:14:14;;;;;;;14.20;10.07;;;20.20;99.90;;;;;;5013188;28;20549;-82
2023/09/11 02:16:40;;;;;;;15.03;10.57;;;20.10;99.90;;;;;;5012040;28;20306;-83
2023/09/11 02:19:06;;;;;;;18.40;10.70;;;20.10;99.90;;;;;;5012568;28;20578;-82
2023/09/11 02:21:31;;;;;;;18.63;11.33;;;20.10;99.90;;;;;;5028577;28;20806;-82
2023/09/11 02:23:57;;;;;;;18.43;11.43;;;20.10;99.90;;;;;;5009107;28;20556;-82
2023/09/11 02:26:24;;;;;;;20.03;11.13;;;20.10;99.90;;;;;;5009982;28;20648;-82
2023/09/11 02:28:50;;;;;;;17.77;12.50;;;20.10;99.90;;;;;;5028537;28;21178;-82
2023/09/11 02:31:15;;;;;;;17.07;10.63;;;20.10;99.90;;;;;;5015236;28;20310;-82
2023/09/11 02:33:41;;;;;;;17.47;11.43;;;20.10;99.90;;;;;;5015733;28;20230;-82
2023/09/11 02:36:07;;;;;;;18.93;11.50;;;20.10;99.90;;;;;;5031892;28;20217;-82
2023/09/11 02:38:33;;;;;;;15.43;9.80;;;20.10;99.90;;;;;;5015939;28;20191;-82
2023/09/11 02:40:58;;;;;;;20.40;11.80;;;20.20;99.90;;;;;;4999396;28;20182;-83
2023/09/11 02:43:24;;;;;;;13.33;11.20;;;20.20;99.90;;;;;;5015752;28;20692;-82
2023/09/11 02:45:50;;;;;;;21.50;11.73;;;20.20;99.90;;;;;;5015190;28;20222;-83
2023/09/11 02:48:15;;;;;;;22.87;11.30;;;20.20;99.90;;;;;;5014525;28;20214;-83
2023/09/11 02:50:41;;;;;;;17.90;11.07;;;20.20;99.90;;;;;;5012355;28;20508;-83
2023/09/11 02:53:16;;;;;;;13.73;9.93;;;20.20;99.90;;;;;;5012230;28;20243;-83
2023/09/11 02:55:42;;;;;;;17.53;9.97;;;20.20;99.90;;;;;;5011022;28;20242;-84
2023/09/11 02:58:08;;;;;;;21.37;11.30;;;20.20;99.90;;;;;;5014767;28;20245;-83
2023/09/11 03:00:37;;;;;;;19.27;9.97;;;20.20;99.90;;;;;;5015045;28;20229;-82
2023/09/11 03:03:03;;;;;;;16.00;10.50;;;20.20;99.90;;;;;;5015051;28;20210;-83
2023/09/11 03:05:32;;;;;;;16.07;10.73;;;20.20;99.90;;;;;;5030890;28;20179;-83
2023/09/11 03:08:02;;;;;;;18.17;10.50;;;20.20;99.90;;;;;;5028854;28;20393;-83
2023/09/11 03:10:28;;;;;;;18.43;11.53;;;20.20;99.90;;;;;;5027956;28;20211;-84
2023/09/11 03:12:55;;;;;;;24.27;10.30;;;20.20;99.90;;;;;;5011581;28;20305;-83
2023/09/11 03:15:28;;;;;;;20.83;10.70;;;20.20;99.90;;;;;;5028420;28;20567;-83
2023/09/11 03:17:53;;;;;;;15.83;10.57;;;20.20;99.90;;;;;;5031484;28;20211;-83
2023/09/11 03:20:19;;;;;;;19.73;10.87;;;20.20;99.90;;;;;;5032046;28;20179;-83
2023/09/11 03:22:45;;;;;;;13.07;9.57;;;20.20;99.90;;;;;;5030932;28;20230;-82
2023/09/11 03:25:11;;;;;;;21.60;10.97;;;20.10;99.90;;;;;;5024785;28;20221;-83
2023/09/11 03:27:38;;;;;;;16.80;10.73;;;20.10;99.90;;;;;;5014561;28;20702;-82
2023/09/11 03:30:04;;;;;;;18.07;11.47;;;20.10;99.90;;;;;;5014037;28;20222;-82
2023/09/11 03:32:30;;;;;;;13.97;10.40;;;20.10;99.90;;;;;;5031179;28;20200;-82
2023/09/11 03:34:56;;;;;;;17.50;10.67;;;20.10;99.90;;;;;;5013914;28;20600;-82
2023/09/11 03:37:22;;;;;;;16.93;10.60;;;20.10;99.90;;;;;;5014310;28;20581;-82
2023/09/11 03:39:48;;;;;;;17.73;11.03;;;20.10;99.90;;;;;;5027587;28;20207;-82
2023/09/11 03:42:14;;;;;;;24.60;10.17;;;20.10;99.90;;;;;;4993153;28;20218;-83
2023/09/11 03:44:40;;;;;;;13.57;10.17;;;20.10;99.90;;;;;;4990378;28;20195;-82
2023/09/11 03:47:06;;;;;;;17.73;10.40;;;20.10;99.90;;;;;;4992760;28;20210;-82
2023/09/11 03:49:31;;;;;;;19.73;11.40;;;20.10;99.90;;;;;;4994295;28;20218;-82
2023/09/11 03:51:57;;;;;;;20.00;11.80;;;20.10;99.90;;;;;;5000743;28;20212;-83
2023/09/11 03:54:23;;;;;;;14.57;10.87;;;20.10;99.90;;;;;;5006628;28;20218;-83
2023/09/11 03:56:49;;;;;;;17.20;11.93;;;20.20;99.90;;;;;;5007117;28;20195;-83
2023/09/11 03:59:15;;;;;;;16.10;10.93;;;20.20;99.90;;;;;;4991373;28;20191;-83
2023/09/11 04:01:41;;;;;;;20.43;11.07;;;20.30;99.90;;;;;;5024717;28;20234;-83
2023/09/11 04:04:07;;;;;;;19.37;11.20;;;20.30;99.90;;;;;;4994738;28;20215;-82
2023/09/11 04:06:32;;;;;;;19.13;11.80;;;20.30;99.90;;;;;;5026697;28;20235;-83
2023/09/11 04:08:58;;;;;;;18.13;12.23;;;20.30;99.90;;;;;;4994427;28;20214;-83
2023/09/11 04:11:24;;;;;;;20.80;11.93;;;20.40;99.90;;;;;;4994789;28;20184;-83
2023/09/11 04:13:50;;;;;;;16.93;11.50;;;20.40;99.90;;;;;;5009891;28;20220;-83
2023/09/11 04:16:15;;;;;;;16.73;12.00;;;20.40;99.90;;;;;;5024786;28;20623;-83
2023/09/11 04:18:46;;;;;;;17.57;11.20;;;20.40;99.90;;;;;;5014226;28;20210;-83
2023/09/11 04:21:12;;;;;;;15.13;9.50;;;20.50;99.90;;;;;;5031547;28;20556;-82
2023/09/11 04:23:37;;;;;;;17.63;11.83;;;20.50;99.90;;;;;;5014042;28;20262;-82
2023/09/11 04:26:03;;;;;;;23.53;12.13;;;20.50;99.90;;;;;;5014652;28;20552;-82
2023/09/11 04:28:29;;;;;;;17.13;11.67;;;20.50;99.90;;;;;;5030049;28;20706;-82
2023/09/11 04:30:55;;;;;;;16.17;10.70;;;20.50;99.90;;;;;;5013504;28;20211;-82
2023/09/11 04:33:21;;;;;;;16.00;11.57;;;20.60;99.90;;;;;;5013072;28;20233;-83
2023/09/11 04:35:47;;;;;;;17.23;9.73;;;20.50;99.90;;;;;;5013519;28;20209;-83
2023/09/11 04:38:12;;;;;;;20.43;12.23;;;20.50;99.90;;;;;;5030474;28;20194;-82
2023/09/11 04:40:38;;;;;;;17.37;11.80;;;20.50;99.90;;;;;;5013145;28;20215;-82
2023/09/11 04:43:04;;;;;;;19.40;10.50;;;20.40;99.90;;;;;;5028180;28;20260;-83
2023/09/11 04:45:31;;;;;;;18.13;11.33;;;20.40;99.90;;;;;;5025314;28;20301;-83
2023/09/11 04:47:56;;;;;;;15.37;11.50;;;20.30;99.90;;;;;;5027190;28;20209;-82
2023/09/11 04:50:22;;;;;;;14.60;10.97;;;20.30;99.90;;;;;;5014197;28;20187;-83
2023/09/11 04:52:48;;;;;;;18.97;11.83;;;20.20;99.90;;;;;;5010265;28;20258;-83
2023/09/11 04:55:13;;;;;;;17.07;11.27;;;20.20;99.90;;;;;;5009696;28;20230;-83
2023/09/11 04:57:40;;;;;;;18.27;12.10;;;20.20;99.90;;;;;;5021855;28;20222;-82
2023/09/11 05:00:09;;;;;;;19.40;10.83;;;20.20;99.90;;;;;;4978471;28;20218;-83
2023/09/11 05:02:35;;;;;;;21.93;12.07;;;20.20;99.90;;;;;;5010346;28;20183;-82
2023/09/11 05:05:03;;;;;;;19.07;11.67;;;20.20;99.90;;;;;;4994183;28;20236;-83
2023/09/11 05:07:29;;;;;;;20.50;11.27;;;20.20;99.90;;;;;;5009473;28;20577;-83
2023/09/11 05:09:55;;;;;;;14.27;10.13;;;20.20;99.90;;;;;;5009016;28;20207;-82
2023/09/11 05:12:21;;;;;;;18.00;12.33;;;20.30;99.90;;;;;;5009953;28;20247;-82
2023/09/11 05:14:47;;;;;;;18.53;12.07;;;20.30;99.90;;;;;;5026050;28;20242;-82
2023/09/11 05:17:13;;;;;;;18.77;11.50;;;20.30;99.90;;;;;;5009201;28;20671;-82
2023/09/11 05:19:38;;;;;;;20.80;11.73;;;20.30;99.90;;;;;;5007317;28;20211;-83
2023/09/11 05:22:04;;;;;;;18.80;11.53;;;20.20;99.90;;;;;;5012849;28;20214;-83
2023/09/11 05:24:32;;;;;;;20.97;12.43;;;20.20;99.90;;;;;;5029300;28;20218;-82
2023/09/11 05:26:58;;;;;;;19.47;12.50;;;20.30;99.90;;;;;;5013178;28;20206;-82
2023/09/11 05:29:23;;;;;;;15.30;10.90;;;20.40;99.90;;;;;;5013313;28;20201;-82
2023/09/11 05:31:49;;;;;;;21.23;11.80;;;20.40;99.90;;;;;;5010134;28;20218;-83
2023/09/11 05:34:15;;;;;;;18.00;11.87;;;20.40;99.90;;;;;;5009374;28;20234;-84
2023/09/11 05:36:41;;;;;;;18.80;11.03;;;20.30;99.90;;;;;;5028255;28;20264;-82
2023/09/11 05:39:07;;;;;;;20.93;12.60;;;20.30;99.90;;;;;;5012784;28;20214;-82
2023/09/11 05:41:34;;;;;;;17.90;11.80;;;20.30;99.90;;;;;;5029814;28;20193;-83
2023/09/11 05:44:00;;;;;;;17.63;11.73;;;20.40;99.90;;;;;;5029143;28;20187;-84
2023/09/11 05:46:26;;;;;;;20.30;11.73;;;20.50;99.90;;;;;;5029073;28;20214;-85
2023/09/11 05:48:52;;;;;;;19.80;11.52;;;20.60;99.90;;;;;;5030161;28;20293;-84
2023/09/11 05:51:17;;;;;;;19.20;13.07;;;20.70;99.90;;;;;;5013016;28;20708;-84
2023/09/11 05:53:43;;;;;;;22.52;13.70;;;21.00;99.90;;;;;;5025747;28;20206;-84
2023/09/11 05:56:09;;;;;;;23.50;12.03;;;21.40;99.90;;;;;;5010439;28;20183;-84
2023/09/11 05:58:35;;;;;;;18.38;12.25;;;21.70;99.90;;;;;;5029403;28;20617;-84
2023/09/11 06:01:01;;;;;;;18.38;12.15;;;21.80;99.90;;;;;;5029223;28;20215;-85
2023/09/11 06:03:26;;;;;;;20.02;11.70;;;21.80;99.90;;;;;;5012879;28;20709;-85
2023/09/11 06:05:52;;;;;;;19.33;11.65;;;21.90;99.90;;;;;;5031172;28;20214;-84
2023/09/11 06:08:18;;;;;;;15.38;11.45;;;22.00;99.90;;;;;;5017398;28;20590;-85
2023/09/11 06:10:43;;;;;;;17.37;11.00;;;21.90;99.90;;;;;;5016694;28;20293;-84
2023/09/11 06:13:09;;;;;;;16.13;11.68;;;21.90;99.90;;;;;;5015529;28;20608;-84
2023/09/11 06:15:36;;;;;;;18.10;12.68;;;22.00;99.90;;;;;;5017192;28;20295;-83
2023/09/11 06:18:04;;;;;;;15.95;11.55;;;22.10;99.90;;;;;;5033271;28;20703;-82
2023/09/11 06:20:30;;;;;;;16.90;11.50;;;22.10;99.90;;;;;;5017128;28;20274;-83
2023/09/11 06:22:55;;;;;;;18.42;11.13;;;22.10;99.90;;;;;;5016482;28;20294;-84
2023/09/11 06:25:22;;;;;;;18.85;11.55;;;22.10;99.90;;;;;;5031819;28;20240;-83
2023/09/11 06:27:48;;;;;;;18.13;11.63;;;22.10;99.90;;;;;;5015981;28;20230;-83
2023/09/11 06:30:14;;;;;;;14.90;11.35;;;22.00;99.90;;;;;;5032084;28;20268;-83
2023/09/11 06:32:39;;;;;;;17.17;11.20;;;22.00;99.90;;;;;;5032142;28;20218;-83
2023/09/11 06:35:06;;;;;;;15.27;12.40;;;22.00;99.90;;;;;;5016175;28;20662;-83
2023/09/11 06:37:32;;;;;;;19.58;11.88;;;22.10;99.90;;;;;;5015550;28;20206;-83
2023/09/11 06:39:57;;;;;;;15.77;10.45;;;22.00;99.90;;;;;;5032011;28;20827;-83
2023/09/11 06:42:24;;;;;;;17.52;11.25;;;22.20;99.90;;;;;;5015790;28;20199;-83
2023/09/11 06:44:51;;;;;;;20.30;11.27;;;22.50;99.90;;;;;;5033105;28;20202;-83
2023/09/11 06:47:17;;;;;;;21.70;11.93;;;23.00;99.90;;;;;;5032509;28;20197;-83
2023/09/11 06:49:43;;;;;;;19.38;12.35;;;23.60;99.90;;;;;;5031175;28;20226;-83
2023/09/11 06:52:09;;;;;;;19.73;11.50;;;24.10;99.90;;;;;;5029952;28;20313;-83
2023/09/11 06:54:34;;;;;;;19.10;12.05;;;24.80;99.90;;;;;;5012101;28;20325;-84
2023/09/11 06:57:00;;;;;;;17.67;10.95;;;25.10;99.90;;;;;;5012574;28;20616;-84
2023/09/11 06:59:26;;;;;;;21.58;11.40;;;24.80;99.90;;;;;;5032730;28;20554;-83
2023/09/11 07:01:52;;;;;;;14.43;10.27;;;24.70;99.90;;;;;;5015450;28;20222;-84
2023/09/11 07:04:18;;;;;;;17.77;11.00;;;24.80;99.90;;;;;;5015170;28;20293;-84
2023/09/11 07:06:44;;;;;;;14.20;11.10;;;24.30;99.90;;;;;;5031344;28;20750;-84
2023/09/11 07:09:10;;;;;;;21.55;12.05;;;24.10;99.90;;;;;;5014397;28;20210;-84
2023/09/11 07:11:36;;;;;;;16.00;11.20;;;24.50;99.90;;;;;;5030002;28;20196;-84
2023/09/11 07:14:02;;;;;;;16.00;11.75;;;25.10;99.90;;;;;;5032718;28;20696;-84
2023/09/11 07:16:28;;;;;;;16.88;11.35;;;25.80;99.90;;;;;;5012018;28;20217;-84
2023/09/11 07:18:54;;;;;;;17.95;10.32;;;26.40;99.90;;;;;;5031475;28;20261;-83
2023/09/11 07:21:20;;;;;;;23.15;11.43;;;27.10;99.90;;;;;;5029337;28;20210;-83
2023/09/11 07:23:46;;;;;;;13.57;10.70;;;28.40;99.90;;;;;;5015304;28;20244;-83
2023/09/11 07:26:11;;;;;;;18.88;10.20;;;29.00;99.90;;;;;;5015180;28;20640;-84
2023/09/11 07:29:07;;;;;;;16.00;10.50;;;30.30;99.90;;;;;;5030344;28;20230;-83
2023/09/11 07:31:33;;;;;;;14.88;10.80;;;31.10;99.90;;;;;;5014204;28;20222;-83
2023/09/11 07:33:59;;;;;;;13.77;9.02;;;31.90;99.90;;;;;;5014468;28;21149;-84
2023/09/11 07:36:27;;;;;;;15.25;9.68;;;32.80;99.90;;;;;;5014736;28;20803;-84
2023/09/11 07:38:52;;;;;;;13.45;9.48;;;32.90;99.90;;;;;;5031164;28;20621;-85
2023/09/11 07:41:19;;;;;;;15.05;9.45;;;33.50;99.90;;;;;;5015332;28;20262;-84
2023/09/11 07:43:49;;;;;;;14.48;10.93;;;34.40;99.90;;;;;;5014819;28;20210;-86
2023/09/11 07:46:16;;;;;;;13.38;10.27;;;34.80;99.90;;;;;;5015369;28;20203;-86
2023/09/11 07:48:42;;;;;;;16.88;9.98;;;34.70;99.90;;;;;;5030874;28;20317;-85
2023/09/11 07:51:07;;;;;;;13.82;8.95;;;34.20;99.90;;;;;;4998396;28;20302;-83
2023/09/11 07:53:33;;;;;;;13.05;10.20;;;33.90;99.90;;;;;;5010126;28;20572;-86
2023/09/11 07:56:03;;;;;;;14.50;9.90;;;34.40;99.90;;;;;;5027705;28;20705;-85
2023/09/11 07:58:30;;;;;;;13.18;9.98;;;34.00;99.90;;;;;;5029512;28;20211;-84
2023/09/11 08:00:56;;;;;;;19.27;10.73;;;33.80;99.90;;;;;;4994420;28;20330;-87
2023/09/11 08:03:22;;;;;;;13.20;9.60;;;34.00;99.90;;;;;;4994844;28;20672;-86
2023/09/11 08:05:47;;;;;;;17.25;10.68;;;33.20;99.90;;;;;;5010601;28;20180;-86
2023/09/11 08:08:13;;;;;;;12.73;9.68;;;33.40;99.90;;;;;;4995273;28;20286;-86
2023/09/11 08:10:39;;;;;;;17.30;10.40;;;33.90;99.90;;;;;;5027476;28;20228;-86
2023/09/11 08:13:05;;;;;;;14.75;9.57;;;34.70;99.90;;;;;;4994559;28;20731;-86
2023/09/11 08:15:31;;;;;;;13.68;8.70;;;35.10;99.90;;;;;;4995033;28;20211;-86
2023/09/11 08:17:57;;;;;;;15.00;10.88;;;35.60;99.90;;;;;;4994359;28;20279;-86
2023/09/11 08:20:23;;;;;;;17.40;10.05;;;35.40;99.90;;;;;;4994258;28;20188;-86
2023/09/11 08:22:49;;;;;;;16.58;10.85;;;35.20;99.90;;;;;;4993866;28;20763;-86
2023/09/11 08:25:15;;;;;;;18.00;9.93;;;35.60;99.90;;;;;;4993548;28;20298;-85
2023/09/11 08:27:41;;;;;;;15.07;10.07;;;36.00;99.90;;;;;;5009189;28;20222;-86
2023/09/11 08:30:07;;;;;;;14.93;10.48;;;36.70;99.90;;;;;;4993173;28;20219;-86
2023/09/11 08:32:33;;;;;;;16.10;10.20;;;37.00;99.90;;;;;;4994334;28;20188;-86
2023/09/11 08:34:59;;;;;;;13.88;10.30;;;35.80;99.90;;;;;;5026627;28;20567;-86
2023/09/11 08:37:25;;;;;;;17.40;10.55;;;35.20;99.90;;;;;;4993702;28;20211;-87
2023/09/11 08:39:52;;;;;;;17.88;10.40;;;34.60;99.90;;;;;;5008742;28;20702;-87
2023/09/11 08:42:18;;;;;;;13.23;10.02;;;35.70;99.90;;;;;;5009944;28;20230;-87
2023/09/11 08:44:44;;;;;;;16.25;10.48;;;36.30;99.90;;;;;;5010487;28;20191;-86
2023/09/11 08:47:12;;;;;;;15.95;11.02;;;36.70;99.90;;;;;;5011612;28;20197;-87
2023/09/11 08:50:02;;;;;;;15.77;10.32;;;37.00;99.90;;;;;;4994077;28;20773;-87
2023/09/11 08:52:29;;;;;;;12.85;10.88;;;36.70;99.90;;;;;;5008740;28;20277;-87
2023/09/11 08:55:02;;;;;;;15.07;10.57;;;36.80;99.90;;;;;;5006394;28;20242;-87
2023/09/11 08:57:31;;;;;;;14.10;10.43;;;36.90;99.90;;;;;;5008603;28;20212;-87
2023/09/11 09:00:04;;;;;;;18.52;10.80;;;35.80;99.90;;;;;;5010804;28;20218;-87
2023/09/11 09:02:35;;;;;;;15.50;10.30;;;36.20;99.90;;;;;;5011232;28;20175;-87
2023/09/11 09:05:03;;;;;;;14.27;10.48;;;36.00;99.90;;;;;;5010144;28;20215;-87
2023/09/11 09:07:31;;;;;;;11.60;8.95;;;35.80;99.90;;;;;;5001838;28;20216;-87
2023/09/11 09:09:57;;;;;;;15.32;8.82;;;36.10;99.90;;;;;;5008867;28;20986;-87
2023/09/11 09:12:25;;;;;;;11.48;8.80;;;34.80;99.90;;;;;;5010014;28;20262;-86
2023/09/11 09:14:51;;;;;;;12.05;9.88;;;34.40;99.90;;;;;;5010249;28;20373;-86
2023/09/11 09:17:17;;;;;;;14.55;10.00;;;34.80;99.90;;;;;;5026148;28;20215;-87
2023/09/11 09:19:43;;;;;;;14.35;9.10;;;34.30;99.90;;;;;;5007866;28;20207;-87
2023/09/11 09:22:10;;;;;;;12.50;10.02;;;34.30;99.90;;;;;;5009906;28;20207;-87
2023/09/11 09:24:46;;;;;;;16.13;9.95;;;34.80;99.90;;;;;;5029068;28;20222;-87
2023/09/11 09:27:12;;;;;;;15.57;11.43;;;34.20;99.90;;;;;;5029264;28;20288;-87
2023/09/11 09:29:39;;;;;;;16.30;10.60;;;33.30;99.90;;;;;;5029036;28;20654;-87
2023/09/11 09:32:06;;;;;;;16.60;11.57;;;32.50;99.90;;;;;;5014388;28;21764;-87
2023/09/11 09:34:34;;;;;;;15.85;10.05;;;32.80;99.90;;;;;;5013887;28;20217;-87
2023/09/11 09:37:00;;;;;;;13.77;9.80;;;33.70;99.90;;;;;;5008983;28;20265;-87
2023/09/11 09:39:29;;;;;;;18.75;10.82;;;34.00;99.90;;;;;;5017627;28;20266;-87
2023/09/11 09:42:01;;;;;;;15.15;10.40;;;34.70;99.90;;;;;;5010109;28;20298;-87
2023/09/11 09:44:31;;;;;;;13.40;8.95;;;34.10;99.90;;;;;;5010299;28;20878;-87
2023/09/11 09:47:09;;;;;;;12.35;8.07;;;34.90;99.90;;;;;;4994216;28;20211;-88
2023/09/11 09:50:04;;;;;;;13.60;9.93;;;35.40;99.90;;;;;;5010972;28;20293;-86
2023/09/11 09:52:30;;;;;;;13.43;8.10;;;35.30;99.90;;;;;;4982281;28;20589;-86
2023/09/11 09:55:02;;;;;;;10.00;6.82;;;35.60;99.90;;;;;;5012582;28;20305;-87
2023/09/11 09:57:28;;;;;;;12.20;6.88;;;35.90;99.90;;;;;;5026971;28;20214;-87
2023/09/11 09:59:57;;;;;;;8.02;5.18;;;36.90;99.90;;;;;;5012975;28;20701;-87
2023/09/11 10:02:28;;;;;;;6.35;5.32;;;36.40;99.90;;;;;;5029658;28;20190;-87
2023/09/11 10:04:55;;;;;;;7.53;5.10;;;36.90;99.90;;;;;;5028275;28;20292;-87
2023/09/11 10:07:44;;;;;;;10.77;5.97;;;37.20;99.90;;;;;;5011691;28;20211;-87
2023/09/11 10:10:24;;;;;;;5.50;5.00;;;37.50;99.90;;;;;;5038680;28;20246;-88
2023/09/11 10:13:12;;;;;;;7.60;4.88;;;36.00;99.90;;;;;;5030307;28;20206;-88
2023/09/11 10:15:40;;;;;;;8.57;5.50;;;35.30;99.90;;;;;;5030587;28;21096;-88
2023/09/11 10:18:08;;;;;;;7.15;5.70;;;34.80;99.90;;;;;;5029709;28;20570;-87
2023/09/11 10:20:35;;;;;;;8.68;6.35;;;34.50;99.90;;;;;;5013587;28;20191;-87
2023/09/11 10:23:03;;;;;;;7.32;5.60;;;34.10;99.90;;;;;;5013493;28;20195;-87
2023/09/11 10:25:32;;;;;;;8.27;5.57;;;33.90;99.90;;;;;;5029138;28;20218;-87
2023/09/11 10:28:08;;;;;;;8.30;6.30;;;34.00;99.90;;;;;;5013055;28;20210;-86
2023/09/11 10:30:58;;;;;;;11.05;5.90;;;33.70;99.90;;;;;;5011810;28;20630;-87
2023/09/11 10:33:26;;;;;;;9.70;5.90;;;34.30;99.90;;;;;;5045807;28;20659;-87
2023/09/11 10:35:59;;;;;;;8.95;5.00;;;34.30;99.90;;;;;;5012584;28;20313;-86
2023/09/11 10:38:31;;;;;;;8.10;4.60;;;34.10;99.90;;;;;;5044868;28;20193;-85
2023/09/11 10:40:59;;;;;;;5.78;5.10;;;32.60;99.90;;;;;;5030547;28;20248;-85
2023/09/11 10:43:26;;;;;;;7.32;4.50;;;32.60;99.90;;;;;;5028714;28;20211;-86
2023/09/11 10:45:52;;;;;;;5.07;4.00;;;31.90;99.90;;;;;;5028553;28;20268;-85
2023/09/11 10:48:32;;;;;;;5.45;4.18;;;32.60;99.90;;;;;;5012313;28;20216;-86
2023/09/11 10:50:59;;;;;;;6.28;4.55;;;32.50;99.90;;;;;;5029183;28;21140;-85
2023/09/11 10:53:27;;;;;;;5.78;3.55;;;32.40;99.90;;;;;;5030233;28;20225;-87
2023/09/11 10:56:00;;;;;;;7.45;3.30;;;32.40;99.90;;;;;;5024481;28;20211;-87
2023/09/11 10:58:29;;;;;;;5.18;4.68;;;32.00;99.90;;;;;;5010605;28;20207;-86
2023/09/11 11:00:56;;;;;;;4.38;2.97;;;32.20;99.90;;;;;;5011832;28;20326;-85
2023/09/11 11:03:27;;;;;;;4.97;3.55;;;31.90;99.90;;;;;;5011626;28;20215;-84
2023/09/11 11:05:54;;;;;;;5.18;3.58;;;31.80;99.90;;;;;;5011672;28;20215;-85
2023/09/11 11:08:19;;;;;;;5.97;4.15;;;31.30;99.90;;;;;;4995419;28;20187;-84
2023/09/11 11:10:55;;;;;;;4.20;3.45;;;31.00;99.90;;;;;;4995362;28;20600;-85
2023/09/11 11:13:22;;;;;;;6.18;3.72;;;30.80;99.90;;;;;;5011334;28;20231;-84
2023/09/11 11:15:48;;;;;;;7.85;3.55;;;31.20;99.90;;;;;;4994764;28;20216;-84
2023/09/11 11:18:27;;;;;;;6.72;3.95;;;31.40;99.90;;;;;;5009873;28;20209;-84
2023/09/11 11:21:04;;;;;;;7.00;4.07;;;32.00;99.90;;;;;;5030580;28;20224;-84
2023/09/11 11:23:32;;;;;;;5.55;3.78;;;31.60;99.90;;;;;;5032564;28;20209;-85
2023/09/11 11:26:09;;;;;;;5.65;4.53;;;31.40;99.90;;;;;;5032327;28;20301;-82
2023/09/11 11:28:43;;;;;;;5.40;4.72;;;30.70;99.90;;;;;;5030975;28;20214;-84
2023/09/11 11:31:12;;;;;;;7.38;4.90;;;29.90;99.90;;;;;;5018487;28;20650;-84
2023/09/11 11:33:40;;;;;;;11.23;5.32;;;29.80;99.90;;;;;;5030326;28;20242;-84
2023/09/11 11:36:07;;;;;;;8.13;5.00;;;30.10;99.90;;;;;;5030301;28;20256;-84
2023/09/11 11:38:34;;;;;;;7.65;5.40;;;29.80;99.90;;;;;;5031945;28;20191;-84
2023/09/11 11:41:02;;;;;;;10.00;5.35;;;29.90;99.90;;;;;;5032256;28;20659;-84
2023/09/11 11:43:34;;;;;;;9.18;5.47;;;30.00;99.90;;;;;;5026056;28;20214;-84
2023/09/11 11:46:01;;;;;;;7.40;5.10;;;29.50;99.90;;;;;;4993530;28;20296;-84
2023/09/11 11:48:30;;;;;;;8.50;6.22;;;29.20;99.90;;;;;;5022305;28;20265;-84
2023/09/11 11:50:56;;;;;;;11.75;6.32;;;29.20;99.90;;;;;;5005174;28;20391;-86
2023/09/11 11:53:25;;;;;;;9.90;6.65;;;28.90;99.90;;;;;;5006669;28;20207;-84
2023/09/11 11:55:54;;;;;;;8.00;5.97;;;28.50;99.90;;;;;;5041151;28;20214;-83
2023/09/11 11:58:23;;;;;;;8.10;5.75;;;28.60;99.90;;;;;;5026655;28;20241;-84
2023/09/11 12:00:59;;;;;;;8.50;6.00;;;28.60;99.90;;;;;;4990694;28;20204;-84
2023/09/11 12:03:30;;;;;;;8.48;6.90;;;28.30;99.90;;;;;;5007254;28;20238;-84
2023/09/11 12:06:01;;;;;;;7.45;5.78;;;28.40;99.90;;;;;;5005651;28;20819;-84
2023/09/11 12:08:27;;;;;;;8.43;5.88;;;28.50;99.90;;;;;;5007608;28;20178;-85
2023/09/11 12:11:01;;;;;;;9.40;6.85;;;28.30;99.90;;;;;;5022709;28;20253;-84
2023/09/11 12:13:28;;;;;;;7.82;6.07;;;27.70;99.90;;;;;;5006350;28;20219;-85
2023/09/11 12:15:56;;;;;;;8.48;6.75;;;27.80;99.90;;;;;;5013887;28;20265;-83
2023/09/11 12:18:35;;;;;;;9.63;6.68;;;27.70;99.90;;;;;;5006651;28;20302;-84
2023/09/11 12:21:04;;;;;;;9.15;6.60;;;27.90;99.90;;;;;;5004922;28;20281;-84
2023/09/11 12:23:30;;;;;;;9.82;6.40;;;27.60;99.90;;;;;;4990049;28;20187;-84
2023/09/11 12:26:00;;;;;;;13.02;7.20;;;27.30;99.90;;;;;;5000449;28;20700;-85
2023/09/11 12:28:26;;;;;;;11.30;7.35;;;27.40;99.90;;;;;;5020851;28;20211;-84
2023/09/11 12:30:53;;;;;;;10.50;6.95;;;27.30;99.90;;;;;;5004963;28;20733;-84
2023/09/11 12:33:27;;;;;;;8.65;6.25;;;27.20;99.90;;;;;;5004611;28;20265;-84
2023/09/11 12:35:55;;;;;;;11.63;6.88;;;27.00;99.90;;;;;;5021570;28;20687;-85